Monthalia, Texas
Current Conditions -  °F | °C
As of 8:51 PM on Saturday 25 Oct 2014 (Local Time) from KBAZ Reporting Station
Clear Clear  
Wind Chill: 72°   Ceiling: Unl
Heat Index: 72°   Visibility: 10mi
Dew Point: 54°   Wind: 6mph
Humidity: 53%   Direction: 140°SE
Pressure: 30.08"   Gusts: NA
Location:  29.4298°N, 97.5714°W
Report Text: KBAZ 260151Z AUTO 14005KT 10SM CLR 22/12 A3008 RMK AO2 SLP181 T02220122
Loading
Personal Weather Stations






























Interactive Weather Map
Tropical Storm Tracking
New forecast layout! Learn more

10-Day Weather Forecast

Advertisements
Track Severe Weather on mobile